Time,TemperatureF,DewpointF,PressureIn,WindDirection,WindDirectionDegrees,WindSpeedMPH,WindSpeedGustMPH,Humidity,HourlyPrecipIn,Conditions,Clouds,dailyrainin,SoftwareType,DateUTC
2014-10-20 00:01:00,67.1,43.9,28.79,SW,225,2.0,2.0,43,0.00,,,0.00,VWS V14.01,2014-10-20 05:01:00,
2014-10-20 00:06:00,67.1,43.9,28.79,NW,315,1.3,2.7,43,0.00,,,0.00,VWS V14.01,2014-10-20 05:06:00,
2014-10-20 00:11:00,67.1,43.9,28.79,WSW,248,1.1,1.3,43,0.00,,,0.00,VWS V14.01,2014-10-20 05:11:00,
2014-10-20 00:16:00,67.1,43.9,28.79,NW,315,2.0,2.7,43,0.00,,,0.00,VWS V14.01,2014-10-20 05:16:00,
2014-10-20 00:21:00,67.1,43.9,28.79,NW,315,1.3,1.3,43,0.00,,,0.00,VWS V14.01,2014-10-20 05:21:00,
2014-10-20 00:26:00,67.1,43.9,28.79,NW,315,1.1,1.6,43,0.00,,,0.00,VWS V14.01,2014-10-20 05:26:00,
2014-10-20 00:31:00,67.1,43.9,28.79,NW,315,0.9,4.7,43,0.00,,,0.00,VWS V14.01,2014-10-20 05:31:00,
2014-10-20 00:36:00,67.1,43.9,28.79,NW,315,2.5,3.1,43,0.00,,,0.00,VWS V14.01,2014-10-20 05:36:00,
2014-10-20 00:41:00,67.1,43.9,28.79,NW,315,2.0,2.2,43,0.00,,,0.00,VWS V14.01,2014-10-20 05:41:00,
2014-10-20 00:46:00,67.1,43.9,28.79,WNW,292,3.1,3.1,43,0.00,,,0.00,VWS V14.01,2014-10-20 05:46:00,
2014-10-20 00:51:00,67.1,43.9,28.79,NW,315,2.0,2.0,43,0.00,,,0.00,VWS V14.01,2014-10-20 05:51:00,
2014-10-20 00:56:00,67.1,43.9,28.79,NW,315,1.1,1.1,43,0.00,,,0.00,VWS V14.01,2014-10-20 05:56:00,
2014-10-20 01:01:00,67.1,43.9,28.79,West,270,0.0,1.1,43,0.00,,,0.00,VWS V14.01,2014-10-20 06:01:00,
2014-10-20 01:06:00,67.1,43.9,28.79,NNE,22,0.9,0.9,43,0.00,,,0.00,VWS V14.01,2014-10-20 06:06:00,
2014-10-20 01:11:00,67.1,43.9,28.79,SSE,158,1.3,1.3,43,0.00,,,0.00,VWS V14.01,2014-10-20 06:11:00,
2014-10-20 01:16:00,67.1,43.9,28.79,NW,315,1.1,2.2,43,0.00,,,0.00,VWS V14.01,2014-10-20 06:16:00,
2014-10-20 01:21:00,67.1,43.9,28.79,NW,315,1.1,1.1,43,0.00,,,0.00,VWS V14.01,2014-10-20 06:21:00,
2014-10-20 01:26:00,67.1,43.9,28.79,NNW,338,0.0,2.7,43,0.00,,,0.00,VWS V14.01,2014-10-20 06:26:00,
2014-10-20 01:31:00,67.1,43.9,28.79,WNW,292,1.1,1.1,43,0.00,,,0.00,VWS V14.01,2014-10-20 06:31:00,
2014-10-20 01:36:00,67.1,43.9,28.79,WSW,248,0.0,0.0,43,0.00,,,0.00,VWS V14.01,2014-10-20 06:36:00,
2014-10-20 01:41:00,67.1,43.9,28.79,West,270,2.5,2.5,43,0.00,,,0.00,VWS V14.01,2014-10-20 06:41:00,
2014-10-20 01:46:00,67.1,43.9,28.79,West,270,0.0,0.0,43,0.00,,,0.00,VWS V14.01,2014-10-20 06:46:00,
2014-10-20 01:51:00,67.1,43.9,28.79,NNW,338,2.0,2.0,43,0.00,,,0.00,VWS V14.01,2014-10-20 06:51:00,
2014-10-20 01:56:00,67.1,43.9,28.79,WNW,292,2.7,2.7,43,0.00,,,0.00,VWS V14.01,2014-10-20 06:56:00,
2014-10-20 02:01:00,67.1,43.9,28.79,NW,315,0.0,1.3,43,0.00,,,0.00,VWS V14.01,2014-10-20 07:01:00,
2014-10-20 02:06:00,67.1,43.9,28.79,WNW,292,0.0,0.0,43,0.00,,,0.00,VWS V14.01,2014-10-20 07:06:00,
2014-10-20 02:11:00,67.1,43.9,28.79,NW,315,0.9,1.6,43,0.00,,,0.00,VWS V14.01,2014-10-20 07:11:00,
2014-10-20 02:16:00,67.1,43.9,28.79,WNW,292,1.3,1.3,43,0.00,,,0.00,VWS V14.01,2014-10-20 07:16:00,
2014-10-20 02:21:00,67.1,43.9,28.79,WNW,292,0.0,0.9,43,0.00,,,0.00,VWS V14.01,2014-10-20 07:21:00,
2014-10-20 02:26:00,67.1,43.9,28.79,NW,315,0.0,0.0,43,0.00,,,0.00,VWS V14.01,2014-10-20 07:26:00,
2014-10-20 02:31:00,67.1,43.9,28.79,NW,315,0.0,0.0,43,0.00,,,0.00,VWS V14.01,2014-10-20 07:31:00,
2014-10-20 02:36:00,67.1,43.9,28.79,NW,315,0.0,0.0,43,0.00,,,0.00,VWS V14.01,2014-10-20 07:36:00,
2014-10-20 02:41:00,67.1,43.9,28.79,WNW,292,0.0,0.0,43,0.00,,,0.00,VWS V14.01,2014-10-20 07:41:00,
2014-10-20 02:46:00,67.1,43.9,28.79,WNW,292,0.0,0.0,43,0.00,,,0.00,VWS V14.01,2014-10-20 07:46:00,
2014-10-20 02:51:00,67.1,43.9,28.79,North,0,0.0,0.0,43,0.00,,,0.00,VWS V14.01,2014-10-20 07:51:00,
2014-10-20 02:56:00,67.1,43.9,28.79,NW,315,0.0,0.0,43,0.00,,,0.00,VWS V14.01,2014-10-20 07:56:00,
2014-10-20 03:01:00,67.1,43.9,28.79,NW,315,2.5,2.5,43,0.00,,,0.00,VWS V14.01,2014-10-20 08:01:00,
2014-10-20 03:06:00,67.1,43.9,28.79,NNE,22,0.0,0.0,43,0.00,,,0.00,VWS V14.01,2014-10-20 08:06:00,
2014-10-20 03:11:00,67.1,43.9,28.79,WNW,292,0.0,0.0,43,0.00,,,0.00,VWS V14.01,2014-10-20 08:11:00,
2014-10-20 03:16:00,67.1,43.9,28.79,WNW,292,0.0,0.0,43,0.00,,,0.00,VWS V14.01,2014-10-20 08:16:00,
2014-10-20 03:21:00,67.1,43.9,28.79,NW,315,0.9,0.9,43,0.00,,,0.00,VWS V14.01,2014-10-20 08:21:00,
2014-10-20 03:26:00,67.1,43.9,28.79,WNW,292,0.9,0.9,43,0.00,,,0.00,VWS V14.01,2014-10-20 08:26:00,
2014-10-20 03:31:00,67.1,43.9,28.79,West,270,0.0,2.2,43,0.00,,,0.00,VWS V14.01,2014-10-20 08:31:00,
2014-10-20 03:36:00,67.1,43.9,28.79,NW,315,0.9,1.1,43,0.00,,,0.00,VWS V14.01,2014-10-20 08:36:00,
2014-10-20 03:41:00,67.1,43.9,28.79,WNW,292,1.6,1.6,43,0.00,,,0.00,VWS V14.01,2014-10-20 08:41:00,
2014-10-20 03:46:00,67.1,43.9,28.79,WNW,292,1.6,1.6,43,0.00,,,0.00,VWS V14.01,2014-10-20 08:46:00,
2014-10-20 03:51:00,67.1,43.9,28.79,WSW,248,0.0,0.0,43,0.00,,,0.00,VWS V14.01,2014-10-20 08:51:00,
2014-10-20 03:56:00,67.1,43.9,28.79,West,270,0.0,0.0,43,0.00,,,0.00,VWS V14.01,2014-10-20 08:56:00,
2014-10-20 04:01:00,67.1,43.9,28.79,WNW,292,0.0,0.0,43,0.00,,,0.00,VWS V14.01,2014-10-20 09:01:00,
2014-10-20 04:06:00,67.1,43.9,28.79,West,270,1.6,2.5,43,0.00,,,0.00,VWS V14.01,2014-10-20 09:06:00,
2014-10-20 04:11:00,67.1,43.9,28.79,West,270,0.0,1.6,43,0.00,,,0.00,VWS V14.01,2014-10-20 09:11:00,
2014-10-20 04:16:00,67.1,43.9,28.79,West,270,0.0,1.1,43,0.00,,,0.00,VWS V14.01,2014-10-20 09:16:00,
2014-10-20 04:21:00,67.1,43.9,28.79,WNW,292,0.0,0.0,43,0.00,,,0.00,VWS V14.01,2014-10-20 09:21:00,
2014-10-20 04:26:00,67.1,43.9,28.79,NW,315,0.0,0.0,43,0.00,,,0.00,VWS V14.01,2014-10-20 09:26:00,
2014-10-20 04:31:00,67.1,43.9,28.79,West,270,0.0,1.3,43,0.00,,,0.00,VWS V14.01,2014-10-20 09:31:00,
2014-10-20 04:36:00,67.1,43.9,28.79,West,270,0.0,0.0,43,0.00,,,0.00,VWS V14.01,2014-10-20 09:36:00,
2014-10-20 04:41:00,67.1,43.9,28.79,NW,315,0.0,0.0,43,0.00,,,0.00,VWS V14.01,2014-10-20 09:41:00,
2014-10-20 04:46:00,67.1,43.9,28.79,West,270,0.0,0.0,43,0.00,,,0.00,VWS V14.01,2014-10-20 09:46:00,
2014-10-20 04:51:00,67.1,43.9,28.79,West,270,0.0,0.0,43,0.00,,,0.00,VWS V14.01,2014-10-20 09:51:00,
2014-10-20 04:56:00,67.1,43.9,28.79,West,270,0.0,0.0,43,0.00,,,0.00,VWS V14.01,2014-10-20 09:56:00,
2014-10-20 05:01:00,67.1,43.9,28.79,West,270,0.0,0.0,43,0.00,,,0.00,VWS V14.01,2014-10-20 10:01:00,
2014-10-20 05:06:00,67.1,43.9,28.82,WNW,292,0.0,0.0,43,0.00,,,0.00,VWS V14.01,2014-10-20 10:06:00,
2014-10-20 05:11:00,67.1,43.9,28.82,WSW,248,0.0,0.0,43,0.00,,,0.00,VWS V14.01,2014-10-20 10:11:00,
2014-10-20 05:16:00,67.1,43.9,28.82,West,270,0.0,0.0,43,0.00,,,0.00,VWS V14.01,2014-10-20 10:16:00,
2014-10-20 05:21:00,67.1,43.9,28.82,WSW,248,0.0,0.0,43,0.00,,,0.00,VWS V14.01,2014-10-20 10:21:00,
2014-10-20 05:26:00,67.1,43.9,28.82,SW,225,0.0,0.0,43,0.00,,,0.00,VWS V14.01,2014-10-20 10:26:00,
2014-10-20 05:31:00,67.1,43.9,28.82,WSW,248,0.0,0.0,43,0.00,,,0.00,VWS V14.01,2014-10-20 10:31:00,
2014-10-20 05:36:00,67.1,43.9,28.82,WSW,248,0.0,0.0,43,0.00,,,0.00,VWS V14.01,2014-10-20 10:36:00,
2014-10-20 05:41:00,67.1,43.9,28.82,WSW,248,0.0,0.0,43,0.00,,,0.00,VWS V14.01,2014-10-20 10:41:00,
2014-10-20 05:46:00,67.1,43.9,28.82,SSE,158,0.0,0.0,43,0.00,,,0.00,VWS V14.01,2014-10-20 10:46:00,
2014-10-20 05:51:00,67.1,43.9,28.85,SW,225,0.0,0.0,43,0.00,,,0.00,VWS V14.01,2014-10-20 10:51:00,
2014-10-20 05:56:00,67.1,43.9,28.85,SW,225,0.0,0.0,43,0.00,,,0.00,VWS V14.01,2014-10-20 10:56:00,
2014-10-20 06:01:00,67.1,43.9,28.85,SW,225,0.0,0.0,43,0.00,,,0.00,VWS V14.01,2014-10-20 11:01:00,
2014-10-20 06:06:00,67.1,43.9,28.85,SW,225,0.0,0.0,43,0.00,,,0.00,VWS V14.01,2014-10-20 11:06:00,
2014-10-20 06:11:00,67.1,43.9,28.85,WSW,248,0.0,0.0,43,0.00,,,0.00,VWS V14.01,2014-10-20 11:11:00,
2014-10-20 06:16:00,67.1,43.9,28.85,WSW,248,0.0,0.0,43,0.00,,,0.00,VWS V14.01,2014-10-20 11:16:00,
2014-10-20 06:21:00,67.1,43.9,28.85,WSW,248,0.0,0.0,43,0.00,,,0.00,VWS V14.01,2014-10-20 11:21:00,
2014-10-20 06:26:00,67.1,43.9,28.85,WSW,248,0.0,0.0,43,0.00,,,0.00,VWS V14.01,2014-10-20 11:26:00,
2014-10-20 06:31:00,67.1,43.9,28.85,WSW,248,0.0,0.0,43,0.00,,,0.00,VWS V14.01,2014-10-20 11:31:00,
2014-10-20 06:36:00,67.1,43.9,28.85,WSW,248,0.0,0.0,43,0.00,,,0.00,VWS V14.01,2014-10-20 11:36:00,
2014-10-20 06:41:00,67.1,43.9,28.85,WSW,248,0.0,0.0,43,0.00,,,0.00,VWS V14.01,2014-10-20 11:41:00,
2014-10-20 06:46:00,67.1,43.9,28.85,WSW,248,0.0,0.0,43,0.00,,,0.00,VWS V14.01,2014-10-20 11:46:00,